Time;durP1;ratioP1;P1;durP2;ratioP2;P2;SDS_P1;SDS_P2;PMS_P1;PMS_P2;Temp;Humidity;BMP_temperature;BMP_pressure;BME280_temperature;BME280_humidity;BME280_pressure;Samples;Min_cycle;Max_cycle;Signal;HPM_P1;HPM_P2
2023/10/31 00:02:02;;;;;;;1.37;0.73;;;13.40;91.40;;;;;;5029682;28;20490;-47
2023/10/31 00:04:30;;;;;;;1.03;0.73;;;13.40;91.20;;;;;;5028617;28;20505;-47
2023/10/31 00:07:00;;;;;;;1.50;0.90;;;13.40;91.30;;;;;;5029329;28;20442;-46
2023/10/31 00:09:28;;;;;;;1.33;0.80;;;13.40;91.20;;;;;;5027921;28;20497;-47
2023/10/31 00:11:56;;;;;;;1.37;0.83;;;13.40;91.20;;;;;;5029428;28;20525;-48
2023/10/31 00:14:24;;;;;;;1.47;0.70;;;13.40;91.20;;;;;;5026710;28;20469;-47
2023/10/31 00:16:58;;;;;;;1.43;1.00;;;13.40;91.20;;;;;;5029825;28;20463;-46
2023/10/31 00:19:27;;;;;;;1.20;0.80;;;13.40;91.20;;;;;;5028903;28;20513;-47
2023/10/31 00:21:55;;;;;;;1.60;1.10;;;13.40;91.20;;;;;;5014653;28;20415;-47
2023/10/31 00:24:24;;;;;;;1.70;1.03;;;13.40;91.20;;;;;;5026020;28;20486;-46
2023/10/31 00:26:52;;;;;;;1.37;0.60;;;13.40;91.20;;;;;;5030261;28;20478;-50
2023/10/31 00:29:20;;;;;;;1.60;0.80;;;13.40;91.10;;;;;;5008012;28;20829;-48
2023/10/31 00:31:48;;;;;;;1.43;0.90;;;13.40;91.10;;;;;;5029589;28;20497;-47
2023/10/31 00:34:16;;;;;;;1.80;1.00;;;13.40;91.10;;;;;;5028674;28;20485;-47
2023/10/31 00:36:44;;;;;;;1.67;0.87;;;13.40;91.10;;;;;;5029076;28;20848;-47
2023/10/31 00:39:13;;;;;;;1.23;0.80;;;13.40;91.20;;;;;;5006546;28;20569;-46
2023/10/31 00:41:45;;;;;;;2.30;1.03;;;13.40;91.00;;;;;;5029215;28;20437;-47
2023/10/31 00:44:13;;;;;;;1.30;0.80;;;13.40;91.00;;;;;;5028423;28;20560;-46
2023/10/31 00:46:41;;;;;;;1.70;1.00;;;13.40;91.00;;;;;;5028387;28;20510;-47
2023/10/31 00:49:09;;;;;;;2.30;0.87;;;13.40;91.00;;;;;;5027068;28;20484;-48
2023/10/31 00:51:37;;;;;;;1.37;0.63;;;13.40;91.00;;;;;;5029261;28;20846;-46
2023/10/31 00:54:06;;;;;;;1.33;0.70;;;13.40;90.90;;;;;;5006992;28;20892;-47
2023/10/31 00:56:34;;;;;;;1.60;0.80;;;13.40;90.90;;;;;;5029096;28;20848;-46
2023/10/31 00:59:03;;;;;;;1.50;1.00;;;13.40;90.90;;;;;;5010149;28;20526;-46
2023/10/31 01:01:31;;;;;;;1.13;0.80;;;13.40;90.90;;;;;;5009702;28;20534;-46
2023/10/31 01:03:59;;;;;;;1.30;0.67;;;13.40;90.90;;;;;;5028680;28;20478;-46
2023/10/31 01:06:27;;;;;;;1.70;1.00;;;13.40;91.00;;;;;;5028847;28;20466;-46
2023/10/31 01:08:56;;;;;;;1.70;0.70;;;13.40;90.90;;;;;;5026925;28;20936;-46
2023/10/31 01:11:23;;;;;;;1.20;0.60;;;13.40;90.90;;;;;;5025388;28;20512;-47
2023/10/31 01:13:51;;;;;;;1.20;0.73;;;13.40;90.90;;;;;;5025153;28;20551;-47
2023/10/31 01:16:21;;;;;;;1.10;0.50;;;13.40;90.80;;;;;;5009883;28;20459;-46
2023/10/31 01:18:49;;;;;;;3.33;0.60;;;13.40;90.80;;;;;;5027165;28;20993;-47
2023/10/31 01:21:17;;;;;;;1.60;0.77;;;13.40;90.80;;;;;;5028528;28;20994;-48
2023/10/31 01:23:47;;;;;;;1.10;0.60;;;13.40;90.80;;;;;;5027155;28;20472;-48
2023/10/31 01:26:15;;;;;;;1.77;0.80;;;13.40;90.90;;;;;;5028651;28;20540;-47
2023/10/31 01:28:43;;;;;;;1.43;0.60;;;13.30;90.80;;;;;;5010181;28;20482;-47
2023/10/31 01:31:11;;;;;;;2.03;0.77;;;13.40;90.80;;;;;;5024989;28;20850;-47
2023/10/31 01:33:41;;;;;;;3.30;1.27;;;13.40;90.80;;;;;;5010185;28;20516;-47
2023/10/31 01:36:10;;;;;;;1.30;0.50;;;13.30;90.70;;;;;;5005541;28;20456;-47
2023/10/31 01:38:38;;;;;;;2.43;0.63;;;13.30;90.70;;;;;;5028104;28;20531;-46
2023/10/31 01:41:06;;;;;;;1.60;0.80;;;13.30;90.70;;;;;;5027881;28;20435;-46
2023/10/31 01:43:36;;;;;;;1.53;1.00;;;13.40;90.80;;;;;;5027017;28;20472;-47
2023/10/31 01:46:04;;;;;;;2.03;0.90;;;13.40;90.70;;;;;;5003323;28;20441;-46
2023/10/31 01:48:34;;;;;;;1.20;0.70;;;13.30;90.70;;;;;;5006902;28;20902;-46
2023/10/31 01:51:04;;;;;;;1.40;0.70;;;13.40;90.70;;;;;;5026100;28;20965;-46
2023/10/31 01:53:34;;;;;;;1.77;0.80;;;13.30;90.60;;;;;;5026607;28;20468;-46
2023/10/31 01:56:03;;;;;;;1.27;0.60;;;13.40;90.60;;;;;;5010500;28;20462;-47
2023/10/31 01:58:33;;;;;;;2.23;0.60;;;13.30;90.60;;;;;;5007705;28;20544;-48
2023/10/31 02:01:03;;;;;;;1.40;0.80;;;13.30;90.60;;;;;;5010066;28;20456;-48
2023/10/31 02:03:33;;;;;;;1.37;0.70;;;13.40;90.60;;;;;;5027410;28;20459;-46
2023/10/31 02:06:02;;;;;;;1.53;0.70;;;13.30;90.60;;;;;;5008253;28;20457;-47
2023/10/31 02:08:30;;;;;;;1.90;1.70;;;13.40;90.60;;;;;;5004570;28;20477;-48
2023/10/31 02:10:59;;;;;;;1.70;0.93;;;13.30;90.50;;;;;;5009055;28;21000;-47
2023/10/31 02:13:27;;;;;;;1.20;0.63;;;13.30;90.50;;;;;;5010842;28;20461;-47
2023/10/31 02:15:56;;;;;;;1.50;0.60;;;13.30;90.50;;;;;;5010807;28;20493;-47
2023/10/31 02:18:24;;;;;;;1.53;0.70;;;13.30;90.50;;;;;;5027892;28;20490;-48
2023/10/31 02:20:53;;;;;;;1.70;0.60;;;13.30;90.50;;;;;;5027496;28;20456;-47
2023/10/31 02:23:22;;;;;;;1.20;0.60;;;13.30;90.50;;;;;;5026838;28;20462;-46
2023/10/31 02:25:50;;;;;;;1.37;0.70;;;13.30;90.50;;;;;;5029205;28;20514;-47
2023/10/31 02:28:18;;;;;;;1.10;0.70;;;13.30;90.50;;;;;;5005946;28;20456;-47
2023/10/31 02:30:46;;;;;;;1.47;0.80;;;13.30;90.60;;;;;;5027459;28;20458;-48
2023/10/31 02:33:14;;;;;;;1.37;0.50;;;13.30;90.60;;;;;;5026417;28;20492;-47
2023/10/31 02:35:42;;;;;;;1.33;1.07;;;13.30;90.60;;;;;;5027809;28;20857;-48
2023/10/31 02:38:10;;;;;;;2.20;0.70;;;13.30;90.60;;;;;;5025809;28;20464;-49
2023/10/31 02:40:40;;;;;;;1.50;0.90;;;13.30;90.60;;;;;;5006246;28;20468;-47
2023/10/31 02:43:08;;;;;;;1.37;0.60;;;13.30;90.50;;;;;;5027018;28;20935;-46
2023/10/31 02:45:36;;;;;;;1.60;0.97;;;13.30;90.60;;;;;;5010666;28;20475;-47
2023/10/31 02:48:04;;;;;;;1.60;0.63;;;13.30;90.50;;;;;;5023764;28;20453;-45
2023/10/31 02:50:32;;;;;;;1.40;0.63;;;13.30;90.60;;;;;;5006538;28;21060;-46
2023/10/31 02:53:00;;;;;;;1.37;0.77;;;13.30;90.60;;;;;;5009137;28;21063;-47
2023/10/31 02:55:28;;;;;;;1.30;0.80;;;13.30;90.60;;;;;;5027285;28;21020;-46
2023/10/31 02:57:59;;;;;;;1.30;0.80;;;13.30;90.60;;;;;;5026382;28;20440;-47
2023/10/31 03:00:27;;;;;;;2.30;0.87;;;13.30;90.60;;;;;;5009450;28;20448;-47
2023/10/31 03:02:54;;;;;;;1.20;0.80;;;13.30;90.60;;;;;;5030480;28;20543;-48
2023/10/31 03:05:23;;;;;;;1.50;0.70;;;13.30;90.60;;;;;;5029928;28;20448;-48
2023/10/31 03:07:51;;;;;;;1.50;0.63;;;13.30;90.50;;;;;;5030278;28;20494;-47
2023/10/31 03:10:20;;;;;;;1.20;0.67;;;13.30;90.50;;;;;;5013071;28;20462;-48
2023/10/31 03:12:48;;;;;;;1.37;0.70;;;13.30;90.50;;;;;;5013341;28;20454;-46
2023/10/31 03:15:17;;;;;;;1.30;0.63;;;13.30;90.60;;;;;;5012521;28;20479;-46
2023/10/31 03:17:45;;;;;;;1.50;0.70;;;13.30;90.60;;;;;;5030170;28;20525;-45
2023/10/31 03:20:13;;;;;;;1.10;0.60;;;13.20;90.50;;;;;;5030439;28;20486;-47
2023/10/31 03:22:41;;;;;;;1.13;0.60;;;13.30;90.60;;;;;;5030300;28;20930;-50
2023/10/31 03:25:09;;;;;;;2.03;0.67;;;13.20;90.60;;;;;;5028660;28;20461;-47
2023/10/31 03:27:37;;;;;;;1.70;0.80;;;13.20;90.60;;;;;;5009165;28;20414;-46
2023/10/31 03:30:06;;;;;;;1.20;0.60;;;13.20;90.60;;;;;;5029595;28;21051;-48
2023/10/31 03:32:36;;;;;;;1.83;0.70;;;13.30;90.60;;;;;;5029965;28;20440;-49
2023/10/31 03:35:04;;;;;;;1.10;0.57;;;13.20;90.60;;;;;;5027738;28;20472;-47
2023/10/31 03:37:32;;;;;;;1.10;0.60;;;13.30;90.60;;;;;;5009213;28;20976;-46
2023/10/31 03:40:00;;;;;;;1.13;0.57;;;13.20;90.60;;;;;;5029829;28;20482;-48
2023/10/31 03:42:28;;;;;;;1.33;0.60;;;13.20;90.50;;;;;;5030033;28;20498;-45
2023/10/31 03:44:56;;;;;;;1.10;0.60;;;13.30;90.50;;;;;;5029819;28;20489;-47
2023/10/31 03:47:24;;;;;;;2.10;0.50;;;13.20;90.50;;;;;;5012291;28;20562;-46
2023/10/31 03:49:54;;;;;;;1.57;0.70;;;13.20;90.50;;;;;;5029974;28;20456;-46
2023/10/31 03:52:22;;;;;;;2.23;1.00;;;13.20;90.60;;;;;;5030459;28;20429;-46
2023/10/31 03:54:50;;;;;;;1.33;0.60;;;13.20;90.60;;;;;;5010059;28;20503;-47
2023/10/31 03:57:18;;;;;;;1.30;0.87;;;13.20;90.60;;;;;;5030180;28;20476;-47
2023/10/31 03:59:46;;;;;;;1.30;0.70;;;13.30;90.60;;;;;;5011614;28;20503;-48
2023/10/31 04:02:14;;;;;;;1.30;0.50;;;13.20;90.60;;;;;;5011742;28;20535;-49
2023/10/31 04:04:42;;;;;;;1.13;0.60;;;13.20;90.60;;;;;;5005989;28;20461;-47
2023/10/31 04:07:12;;;;;;;2.47;0.70;;;13.20;90.60;;;;;;5008408;28;20440;-46
2023/10/31 04:09:40;;;;;;;2.13;0.67;;;13.20;90.60;;;;;;5029236;28;20464;-48
2023/10/31 04:12:08;;;;;;;1.40;0.73;;;13.20;90.60;;;;;;5011382;28;20491;-46
2023/10/31 04:14:36;;;;;;;1.10;0.63;;;13.30;90.60;;;;;;5031092;28;20511;-47
2023/10/31 04:17:04;;;;;;;1.13;0.60;;;13.30;90.70;;;;;;5030142;28;20468;-46
2023/10/31 04:19:33;;;;;;;1.33;0.90;;;13.20;90.60;;;;;;5028106;28;21529;-46
2023/10/31 04:22:01;;;;;;;1.33;0.73;;;13.20;90.50;;;;;;5030834;28;20441;-46
2023/10/31 04:24:31;;;;;;;1.47;0.77;;;13.20;90.60;;;;;;5029268;28;20545;-47
2023/10/31 04:26:59;;;;;;;1.20;0.80;;;13.20;90.60;;;;;;5030169;28;20489;-47
2023/10/31 04:29:27;;;;;;;1.80;1.00;;;13.20;90.60;;;;;;5029315;28;20452;-47
2023/10/31 04:31:55;;;;;;;1.53;0.70;;;13.20;90.60;;;;;;5030444;28;20478;-47
2023/10/31 04:34:23;;;;;;;2.53;0.97;;;13.20;90.50;;;;;;5026552;28;20470;-46
2023/10/31 04:36:51;;;;;;;1.10;0.50;;;13.20;90.50;;;;;;5029665;28;20493;-48
2023/10/31 04:39:19;;;;;;;3.93;0.80;;;13.20;90.50;;;;;;5027567;28;21107;-48
2023/10/31 04:41:48;;;;;;;1.53;0.93;;;13.20;90.50;;;;;;5027397;28;20534;-47
2023/10/31 04:44:17;;;;;;;1.20;0.63;;;13.20;90.50;;;;;;5028511;28;20485;-48
2023/10/31 04:46:45;;;;;;;1.13;0.70;;;13.20;90.50;;;;;;5011407;28;20458;-47
2023/10/31 04:49:13;;;;;;;1.20;0.73;;;13.20;90.50;;;;;;5027752;28;20461;-47
2023/10/31 04:51:41;;;;;;;1.27;0.70;;;13.20;90.50;;;;;;5029035;28;21066;-47
2023/10/31 04:54:09;;;;;;;1.00;0.67;;;13.20;90.40;;;;;;5027828;28;21094;-47
2023/10/31 04:56:37;;;;;;;1.10;0.70;;;13.20;90.40;;;;;;5030141;28;20868;-46
2023/10/31 04:59:06;;;;;;;1.20;0.70;;;13.20;90.40;;;;;;5027850;28;20516;-47
2023/10/31 05:01:35;;;;;;;1.20;0.50;;;13.20;90.40;;;;;;5028713;28;20504;-48
2023/10/31 05:04:03;;;;;;;1.73;1.20;;;13.20;90.40;;;;;;5026649;28;20536;-47
2023/10/31 05:06:40;;;;;;;1.40;0.60;;;13.20;90.40;;;;;;5029074;28;20457;-46
2023/10/31 05:09:08;;;;;;;1.50;0.90;;;13.20;90.40;;;;;;5026740;28;20456;-46
2023/10/31 05:11:36;;;;;;;1.20;0.63;;;13.20;90.40;;;;;;5028570;28;20762;-46
2023/10/31 05:14:04;;;;;;;1.50;0.63;;;13.20;90.40;;;;;;5026931;28;20480;-46
2023/10/31 05:16:40;;;;;;;1.57;0.90;;;13.20;90.30;;;;;;5028381;28;20897;-47
2023/10/31 05:19:08;;;;;;;1.20;0.77;;;13.20;90.40;;;;;;5027856;28;20888;-47
2023/10/31 05:21:36;;;;;;;1.07;0.50;;;13.20;90.30;;;;;;5028548;28;20496;-46
2023/10/31 05:24:05;;;;;;;1.40;0.63;;;13.20;90.30;;;;;;5024443;28;20460;-45
2023/10/31 05:26:33;;;;;;;2.37;0.80;;;13.20;90.30;;;;;;5028905;28;20557;-48
2023/10/31 05:29:01;;;;;;;1.77;0.90;;;13.20;90.30;;;;;;5026281;28;20492;-48
2023/10/31 05:31:29;;;;;;;1.00;0.50;;;13.20;90.30;;;;;;5027189;28;20454;-47
2023/10/31 05:33:59;;;;;;;1.20;0.60;;;13.20;90.30;;;;;;5027071;28;20543;-48
2023/10/31 05:36:27;;;;;;;1.13;0.63;;;13.20;90.20;;;;;;5028455;28;20466;-48
2023/10/31 05:38:55;;;;;;;1.10;0.70;;;13.20;90.20;;;;;;5026132;28;20472;-46
2023/10/31 05:41:23;;;;;;;1.63;0.80;;;13.20;90.20;;;;;;5024857;28;20447;-46
2023/10/31 05:43:51;;;;;;;1.20;0.60;;;13.20;90.20;;;;;;5007115;28;20454;-46
2023/10/31 05:46:20;;;;;;;1.43;0.90;;;13.20;90.20;;;;;;5027129;28;20564;-47
2023/10/31 05:48:48;;;;;;;1.73;0.70;;;13.20;90.20;;;;;;5028196;28;20461;-46
2023/10/31 05:51:19;;;;;;;1.10;0.73;;;13.20;90.20;;;;;;5027986;28;20446;-45
2023/10/31 05:53:49;;;;;;;1.40;0.77;;;13.20;90.30;;;;;;5026997;28;21523;-46
2023/10/31 05:56:17;;;;;;;1.63;0.87;;;13.20;90.20;;;;;;5028484;28;20462;-46
2023/10/31 05:58:46;;;;;;;1.90;1.00;;;13.20;90.20;;;;;;5027679;28;20472;-47
2023/10/31 06:01:14;;;;;;;2.07;0.60;;;13.20;90.20;;;;;;5026834;28;20443;-47
2023/10/31 06:03:43;;;;;;;1.03;0.60;;;13.20;90.20;;;;;;5028128;28;20462;-46
2023/10/31 06:06:12;;;;;;;1.13;0.67;;;13.20;90.20;;;;;;5028424;28;20451;-48
2023/10/31 06:08:42;;;;;;;1.30;0.80;;;13.20;90.20;;;;;;5026819;28;20468;-48
2023/10/31 06:11:12;;;;;;;1.83;0.80;;;13.20;90.20;;;;;;5027934;28;20444;-46
2023/10/31 06:13:41;;;;;;;1.73;1.07;;;13.20;90.20;;;;;;5027752;28;20521;-46
2023/10/31 06:16:10;;;;;;;1.70;0.90;;;13.20;90.20;;;;;;5026864;28;20460;-46
2023/10/31 06:18:40;;;;;;;1.50;0.93;;;13.20;90.20;;;;;;5027611;28;20543;-47
2023/10/31 06:21:09;;;;;;;1.00;0.60;;;13.20;90.20;;;;;;5027247;28;20447;-47
2023/10/31 06:23:38;;;;;;;1.50;0.60;;;13.20;90.20;;;;;;5027133;28;20491;-45
2023/10/31 06:26:08;;;;;;;1.70;1.10;;;13.20;90.20;;;;;;5027448;28;20468;-48
2023/10/31 06:28:37;;;;;;;1.40;0.93;;;13.20;90.20;;;;;;5029244;28;20461;-46
2023/10/31 06:31:12;;;;;;;2.00;1.17;;;13.20;90.20;;;;;;5024975;28;20454;-48
2023/10/31 06:33:41;;;;;;;1.90;1.10;;;13.20;90.20;;;;;;5025848;28;20486;-46
2023/10/31 06:36:09;;;;;;;1.37;1.00;;;13.20;90.20;;;;;;5028118;28;20477;-46
2023/10/31 06:38:38;;;;;;;2.07;1.00;;;13.20;90.20;;;;;;5028944;28;20480;-46
2023/10/31 06:41:08;;;;;;;1.90;1.10;;;13.20;90.20;;;;;;5030765;28;20436;-48
2023/10/31 06:43:36;;;;;;;1.40;0.90;;;13.20;90.20;;;;;;5031868;28;20471;-47
2023/10/31 06:46:05;;;;;;;1.10;0.73;;;13.20;90.20;;;;;;5031994;28;20472;-46
2023/10/31 06:48:33;;;;;;;1.57;0.90;;;13.20;90.20;;;;;;5030022;28;20559;-47
2023/10/31 06:51:01;;;;;;;1.30;0.70;;;13.20;90.20;;;;;;5028910;28;20802;-46
2023/10/31 06:53:29;;;;;;;2.70;0.77;;;13.10;90.10;;;;;;5028899;28;20498;-45
2023/10/31 06:55:57;;;;;;;1.20;0.87;;;13.20;90.20;;;;;;5030886;28;20852;-46
2023/10/31 06:58:27;;;;;;;1.17;0.80;;;13.20;90.10;;;;;;5031678;28;21343;-46
2023/10/31 07:00:58;;;;;;;1.57;0.70;;;13.20;90.10;;;;;;5031246;28;20434;-46
2023/10/31 07:03:26;;;;;;;1.20;0.70;;;13.10;90.10;;;;;;5029838;28;20460;-47
2023/10/31 07:05:56;;;;;;;1.40;0.70;;;13.10;90.10;;;;;;5030983;28;20470;-46
2023/10/31 07:08:24;;;;;;;1.33;0.87;;;13.10;90.10;;;;;;5028843;28;21015;-46
2023/10/31 07:10:52;;;;;;;1.37;1.00;;;13.10;90.10;;;;;;5029487;28;20499;-47
2023/10/31 07:13:20;;;;;;;1.93;1.17;;;13.10;90.60;;;;;;5030291;28;20467;-47
2023/10/31 07:15:49;;;;;;;1.40;1.00;;;13.10;90.10;;;;;;5030342;28;20489;-46
2023/10/31 07:18:17;;;;;;;1.30;0.80;;;13.20;90.10;;;;;;5029328;28;20466;-47
2023/10/31 07:20:46;;;;;;;1.43;1.03;;;13.20;90.10;;;;;;5010111;28;20437;-46
2023/10/31 07:23:13;;;;;;;1.30;1.00;;;13.10;90.10;;;;;;5029222;28;20973;-46
2023/10/31 07:25:41;;;;;;;3.03;1.30;;;13.10;90.10;;;;;;5013730;28;20467;-48
2023/10/31 07:28:09;;;;;;;1.60;1.10;;;13.10;90.00;;;;;;5009606;28;20440;-47
2023/10/31 07:30:37;;;;;;;1.73;0.90;;;13.10;90.10;;;;;;5029681;28;20440;-49
2023/10/31 07:33:07;;;;;;;1.37;1.00;;;13.10;90.00;;;;;;5028338;28;20451;-47
2023/10/31 07:35:36;;;;;;;1.87;0.90;;;13.10;90.00;;;;;;5029820;28;20500;-46
2023/10/31 07:38:04;;;;;;;2.73;1.10;;;13.10;90.00;;;;;;5028593;28;20472;-47
2023/10/31 07:40:32;;;;;;;1.47;0.80;;;13.10;90.00;;;;;;5013347;28;20448;-46
2023/10/31 07:43:00;;;;;;;2.00;1.10;;;13.10;90.10;;;;;;5028420;28;20455;-46
2023/10/31 07:45:28;;;;;;;1.63;1.10;;;13.10;90.10;;;;;;5030512;28;20527;-46
2023/10/31 07:47:56;;;;;;;1.60;1.10;;;13.10;90.00;;;;;;5029322;28;20492;-46
2023/10/31 07:50:25;;;;;;;1.50;0.90;;;13.10;90.10;;;;;;5030168;28;20976;-46
2023/10/31 07:52:54;;;;;;;1.47;1.00;;;13.10;90.10;;;;;;5029244;28;20432;-47
2023/10/31 07:55:22;;;;;;;1.70;1.27;;;13.20;90.10;;;;;;5029678;28;20482;-46
2023/10/31 07:57:50;;;;;;;1.10;0.93;;;13.10;90.10;;;;;;5031064;28;20459;-45
2023/10/31 08:00:19;;;;;;;2.30;1.53;;;13.10;90.00;;;;;;5029301;28;20996;-46
2023/10/31 08:02:47;;;;;;;1.40;1.10;;;13.10;90.00;;;;;;5011066;28;20538;-46
2023/10/31 08:05:15;;;;;;;1.70;1.00;;;13.10;90.00;;;;;;5028426;28;21180;-49
2023/10/31 08:07:45;;;;;;;1.30;0.90;;;13.10;90.00;;;;;;5029791;28;20522;-50
2023/10/31 08:10:13;;;;;;;1.73;1.20;;;13.10;90.00;;;;;;5027601;28;20473;-46
2023/10/31 08:12:41;;;;;;;1.50;0.80;;;13.20;90.00;;;;;;5026728;28;20428;-46
2023/10/31 08:15:10;;;;;;;1.50;0.93;;;13.20;90.00;;;;;;5029253;28;20484;-46
2023/10/31 08:17:38;;;;;;;1.63;1.00;;;13.20;90.00;;;;;;5029323;28;20503;-47
2023/10/31 08:20:07;;;;;;;2.73;1.03;;;13.20;90.00;;;;;;5028411;28;20478;-47
2023/10/31 08:22:36;;;;;;;1.17;0.80;;;13.20;89.90;;;;;;5031482;28;20459;-48
2023/10/31 08:25:06;;;;;;;1.20;0.87;;;13.20;90.40;;;;;;5029048;28;20485;-46
2023/10/31 08:27:35;;;;;;;1.70;1.07;;;13.20;89.80;;;;;;5029165;28;20450;-47
2023/10/31 08:30:03;;;;;;;1.30;0.83;;;13.20;90.00;;;;;;5029090;28;20469;-46
2023/10/31 08:32:31;;;;;;;1.50;0.90;;;13.20;89.70;;;;;;5028698;28;20445;-46
2023/10/31 08:35:01;;;;;;;2.23;0.90;;;13.20;89.60;;;;;;5028559;28;20468;-46
2023/10/31 08:37:29;;;;;;;1.77;0.80;;;13.20;89.50;;;;;;5027962;28;20428;-47
2023/10/31 08:39:57;;;;;;;1.10;0.70;;;13.20;89.60;;;;;;5026422;28;20563;-46
2023/10/31 08:42:26;;;;;;;2.80;0.87;;;13.30;89.50;;;;;;5029139;28;20437;-46
2023/10/31 08:44:54;;;;;;;1.87;0.80;;;13.30;89.40;;;;;;5028035;28;20479;-46
2023/10/31 08:47:23;;;;;;;1.17;0.70;;;13.30;89.40;;;;;;5028671;28;20433;-45
2023/10/31 08:49:52;;;;;;;1.60;0.90;;;13.30;89.40;;;;;;5029105;28;20464;-46
2023/10/31 08:52:20;;;;;;;2.17;0.80;;;13.30;89.30;;;;;;5029773;28;20532;-47
2023/10/31 08:54:48;;;;;;;1.37;1.03;;;13.30;89.30;;;;;;5027541;28;20457;-46
2023/10/31 08:57:16;;;;;;;1.67;1.40;;;13.30;89.30;;;;;;5011320;28;20494;-47
2023/10/31 08:59:45;;;;;;;1.50;1.20;;;13.30;89.20;;;;;;5027955;28;21004;-46
2023/10/31 09:02:13;;;;;;;1.00;0.80;;;13.30;89.20;;;;;;5011272;28;20436;-47
2023/10/31 09:04:42;;;;;;;1.17;0.70;;;13.30;89.10;;;;;;5028763;28;21035;-46
2023/10/31 09:07:10;;;;;;;1.30;0.83;;;13.30;89.00;;;;;;5028043;28;20437;-47
2023/10/31 09:09:38;;;;;;;1.60;0.80;;;13.30;89.00;;;;;;5026973;28;20465;-46
2023/10/31 09:12:07;;;;;;;1.40;1.20;;;13.30;89.00;;;;;;5028874;28;20779;-46
2023/10/31 09:14:36;;;;;;;2.70;1.67;;;13.30;89.00;;;;;;5028064;28;20461;-48
2023/10/31 09:17:06;;;;;;;1.33;0.97;;;13.30;88.90;;;;;;5027759;28;20953;-46
2023/10/31 09:19:34;;;;;;;1.37;0.93;;;13.30;88.90;;;;;;5027617;28;20977;-46
2023/10/31 09:22:02;;;;;;;1.30;1.00;;;13.30;88.90;;;;;;5028910;28;20436;-46
2023/10/31 09:24:30;;;;;;;1.87;1.20;;;13.30;88.90;;;;;;5025869;28;20536;-46
2023/10/31 09:26:58;;;;;;;1.00;0.70;;;13.40;88.90;;;;;;5028107;28;20466;-46
2023/10/31 09:29:27;;;;;;;1.30;1.20;;;13.40;88.90;;;;;;5027527;28;20457;-47
2023/10/31 09:31:58;;;;;;;1.80;0.70;;;13.40;88.90;;;;;;5026340;28;20452;-46
2023/10/31 09:34:28;;;;;;;2.23;1.00;;;13.40;88.90;;;;;;5028071;28;20873;-46
2023/10/31 09:36:56;;;;;;;1.40;0.90;;;13.40;88.80;;;;;;5025526;28;20468;-46
2023/10/31 09:39:24;;;;;;;1.43;0.70;;;13.40;88.70;;;;;;5007502;28;20495;-46
2023/10/31 09:41:52;;;;;;;1.40;0.97;;;13.40;88.70;;;;;;5028930;28;20418;-45
2023/10/31 09:44:22;;;;;;;1.00;0.60;;;13.40;88.70;;;;;;5027122;28;20469;-46
2023/10/31 09:46:52;;;;;;;1.13;0.70;;;13.40;88.70;;;;;;5027877;28;20438;-46
2023/10/31 09:49:21;;;;;;;1.20;0.70;;;13.40;88.60;;;;;;5026537;28;20485;-46
2023/10/31 09:51:51;;;;;;;2.40;0.83;;;13.40;88.70;;;;;;5026613;28;20446;-46
2023/10/31 09:54:20;;;;;;;2.37;1.10;;;13.40;88.70;;;;;;5027078;28;20475;-45
2023/10/31 09:56:48;;;;;;;1.30;0.80;;;13.40;88.70;;;;;;5027852;28;20444;-45
2023/10/31 09:59:16;;;;;;;1.03;0.70;;;13.40;89.90;;;;;;5026533;28;20484;-46
2023/10/31 10:01:45;;;;;;;1.37;0.77;;;13.40;88.70;;;;;;5027304;28;20806;-46
2023/10/31 10:04:13;;;;;;;1.27;0.80;;;13.40;88.60;;;;;;5027270;28;20924;-45
2023/10/31 10:06:52;;;;;;;1.30;0.90;;;13.40;88.70;;;;;;5028778;28;20513;-46
2023/10/31 10:09:20;;;;;;;1.10;0.60;;;13.40;88.70;;;;;;5025639;28;20967;-45
2023/10/31 10:11:48;;;;;;;1.13;0.60;;;13.40;88.60;;;;;;5027487;28;20432;-46
2023/10/31 10:14:17;;;;;;;1.97;0.87;;;13.40;88.70;;;;;;5025479;28;20560;-46
2023/10/31 10:16:46;;;;;;;1.30;0.80;;;13.40;88.70;;;;;;5027243;28;20469;-46
2023/10/31 10:19:19;;;;;;;1.10;0.67;;;13.40;88.70;;;;;;5024258;28;20470;-46
2023/10/31 10:21:49;;;;;;;1.10;0.70;;;13.40;88.70;;;;;;5027545;28;20433;-46
2023/10/31 10:24:20;;;;;;;1.83;0.50;;;13.40;88.60;;;;;;5027337;28;20466;-46
2023/10/31 10:26:49;;;;;;;1.40;0.67;;;13.40;88.70;;;;;;5025062;28;20457;-46
2023/10/31 10:29:17;;;;;;;0.90;0.50;;;13.40;88.70;;;;;;5027626;28;20453;-45
2023/10/31 10:31:45;;;;;;;1.30;0.77;;;13.40;88.70;;;;;;5027960;28;20561;-46
2023/10/31 10:34:16;;;;;;;1.17;0.80;;;13.40;88.90;;;;;;5028018;28;20463;-47
2023/10/31 10:36:48;;;;;;;1.13;0.77;;;13.40;88.90;;;;;;5026666;28;20458;-45
2023/10/31 10:39:21;;;;;;;1.00;0.60;;;13.40;88.80;;;;;;5003095;28;21009;-46
2023/10/31 10:41:57;;;;;;;1.40;0.67;;;13.40;88.80;;;;;;5028103;28;20424;-46
2023/10/31 10:44:33;;;;;;;1.03;0.70;;;13.40;88.90;;;;;;5026620;28;21103;-46
2023/10/31 10:47:04;;;;;;;1.13;0.70;;;13.40;88.90;;;;;;5024900;28;20518;-45
2023/10/31 10:49:35;;;;;;;1.30;0.73;;;13.40;90.00;;;;;;5023810;28;20826;-45
2023/10/31 10:52:17;;;;;;;3.20;0.60;;;13.40;88.90;;;;;;5006640;28;20441;-47
2023/10/31 10:54:53;;;;;;;1.30;0.80;;;13.40;88.90;;;;;;5024590;28;20466;-46
2023/10/31 10:57:39;;;;;;;1.83;0.60;;;13.40;88.90;;;;;;5027286;28;20848;-46
2023/10/31 11:00:12;;;;;;;1.47;0.73;;;13.40;88.70;;;;;;5025894;28;20474;-46
2023/10/31 11:02:42;;;;;;;1.90;1.00;;;13.40;88.80;;;;;;5023123;28;20449;-45
2023/10/31 11:05:11;;;;;;;2.10;1.10;;;13.40;88.70;;;;;;5025868;28;20489;-46
2023/10/31 11:07:42;;;;;;;1.63;0.73;;;13.40;88.70;;;;;;5027382;28;20805;-46
2023/10/31 11:10:12;;;;;;;1.17;0.60;;;13.40;88.70;;;;;;5025444;28;20474;-46
2023/10/31 11:12:41;;;;;;;1.20;0.70;;;13.40;88.60;;;;;;5027081;28;20445;-46
2023/10/31 11:15:12;;;;;;;1.10;0.53;;;13.40;88.70;;;;;;5026161;28;20481;-45
2023/10/31 11:17:42;;;;;;;1.30;0.80;;;13.40;88.70;;;;;;5008132;28;20477;-45
2023/10/31 11:20:14;;;;;;;1.17;0.70;;;13.40;88.70;;;;;;5025343;28;20574;-46
2023/10/31 11:22:45;;;;;;;1.40;0.83;;;13.40;88.70;;;;;;5029944;28;20844;-46
2023/10/31 11:25:16;;;;;;;1.77;0.70;;;13.40;88.70;;;;;;5029164;28;20516;-46
2023/10/31 11:28:11;;;;;;;1.10;0.50;;;13.40;88.70;;;;;;5027687;28;20439;-45
2023/10/31 11:30:39;;;;;;;2.40;0.90;;;13.40;88.80;;;;;;5029290;28;20456;-46
2023/10/31 11:33:12;;;;;;;1.10;0.67;;;13.40;88.80;;;;;;5028417;28;20440;-46
2023/10/31 11:35:41;;;;;;;2.17;0.90;;;13.40;88.70;;;;;;5031565;28;20447;-46
2023/10/31 11:38:11;;;;;;;0.90;0.50;;;13.40;88.90;;;;;;5028162;28;20445;-46
2023/10/31 11:41:00;;;;;;;1.83;1.00;;;13.40;88.90;;;;;;5029806;28;20547;-46
2023/10/31 11:43:53;;;;;;;1.40;0.60;;;13.30;88.80;;;;;;5027073;28;20456;-46
2023/10/31 11:46:23;;;;;;;1.30;0.60;;;13.40;88.90;;;;;;5031356;28;20469;-46
2023/10/31 11:48:53;;;;;;;1.30;0.80;;;13.40;88.90;;;;;;5031036;28;20461;-47
2023/10/31 11:51:21;;;;;;;1.10;0.80;;;13.40;88.90;;;;;;5030945;28;20702;-47
2023/10/31 11:53:50;;;;;;;1.30;0.70;;;13.40;88.80;;;;;;5029157;28;20456;-45
2023/10/31 11:56:23;;;;;;;1.03;0.63;;;13.40;88.90;;;;;;5030962;28;20468;-46
2023/10/31 11:58:58;;;;;;;1.30;0.60;;;13.30;88.90;;;;;;5030267;28;20559;-46
2023/10/31 12:01:27;;;;;;;2.03;1.10;;;13.40;88.80;;;;;;5030074;28;20888;-49
2023/10/31 12:03:55;;;;;;;1.10;0.60;;;13.40;88.90;;;;;;5030078;28;20500;-47
2023/10/31 12:06:23;;;;;;;1.33;0.70;;;13.40;88.90;;;;;;5029841;28;20868;-45
2023/10/31 12:08:52;;;;;;;1.00;0.50;;;13.40;89.00;;;;;;5028352;28;20487;-46
2023/10/31 12:11:24;;;;;;;1.40;0.70;;;13.40;88.90;;;;;;5030409;28;20489;-46
2023/10/31 12:13:54;;;;;;;2.93;0.90;;;13.40;88.90;;;;;;5029022;28;20989;-47
2023/10/31 12:16:25;;;;;;;2.60;0.80;;;13.40;89.00;;;;;;5031539;28;20600;-46
2023/10/31 12:18:58;;;;;;;1.57;0.50;;;13.40;88.80;;;;;;5028819;28;20491;-45
2023/10/31 12:21:37;;;;;;;1.20;0.60;;;13.40;88.90;;;;;;5030773;28;20542;-46
2023/10/31 12:24:06;;;;;;;2.00;0.67;;;13.40;88.80;;;;;;5026533;28;20492;-48
2023/10/31 12:26:37;;;;;;;1.40;0.60;;;13.40;88.80;;;;;;5009687;28;20540;-47
2023/10/31 12:29:13;;;;;;;1.17;0.70;;;13.40;88.80;;;;;;5028142;28;20471;-45
2023/10/31 12:31:44;;;;;;;1.93;0.90;;;13.40;88.80;;;;;;5009166;28;20918;-46
2023/10/31 12:34:12;;;;;;;2.40;0.80;;;13.40;88.90;;;;;;5028458;28;20468;-46
2023/10/31 12:36:41;;;;;;;1.10;0.60;;;13.40;88.90;;;;;;5032093;28;20912;-49
2023/10/31 12:39:12;;;;;;;1.97;0.87;;;13.40;88.90;;;;;;5028203;28;20495;-46
2023/10/31 12:41:42;;;;;;;1.50;0.80;;;13.40;89.00;;;;;;5029966;28;20464;-48
2023/10/31 12:44:11;;;;;;;1.10;0.70;;;13.40;89.00;;;;;;5028636;28;20461;-47
2023/10/31 12:46:40;;;;;;;1.83;0.90;;;13.40;89.00;;;;;;5028746;28;20892;-46
2023/10/31 12:49:13;;;;;;;1.20;0.80;;;13.40;89.00;;;;;;5025752;28;20515;-47
2023/10/31 12:51:56;;;;;;;1.30;0.80;;;13.40;89.00;;;;;;5029135;28;20912;-46
2023/10/31 12:54:31;;;;;;;1.53;0.90;;;13.40;89.00;;;;;;5027175;28;20850;-46
2023/10/31 12:57:02;;;;;;;2.03;0.87;;;13.40;89.00;;;;;;5029132;28;20432;-46
2023/10/31 12:59:30;;;;;;;1.00;0.60;;;13.40;89.00;;;;;;5028784;28;20737;-46